sensor_id;sensor_type;location;lat;lon;timestamp;P1;durP1;ratioP1;P2;durP2;ratioP2
7160;SDS011;3622;53.576;9.978;2023-09-07T00:00:46;11.30;;;7.23;;
7160;SDS011;3622;53.576;9.978;2023-09-07T00:03:13;7.97;;;7.17;;
7160;SDS011;3622;53.576;9.978;2023-09-07T00:05:39;8.10;;;7.30;;
7160;SDS011;3622;53.576;9.978;2023-09-07T00:08:05;7.87;;;7.17;;
7160;SDS011;3622;53.576;9.978;2023-09-07T00:10:32;10.43;;;7.10;;
7160;SDS011;3622;53.576;9.978;2023-09-07T00:13:00;8.10;;;7.40;;
7160;SDS011;3622;53.576;9.978;2023-09-07T00:15:27;7.87;;;6.90;;
7160;SDS011;3622;53.576;9.978;2023-09-07T00:17:53;8.10;;;7.40;;
7160;SDS011;3622;53.576;9.978;2023-09-07T00:20:19;7.40;;;6.80;;
7160;SDS011;3622;53.576;9.978;2023-09-07T00:22:46;8.20;;;7.50;;
7160;SDS011;3622;53.576;9.978;2023-09-07T00:25:12;7.60;;;7.00;;
7160;SDS011;3622;53.576;9.978;2023-09-07T00:27:38;8.80;;;6.90;;
7160;SDS011;3622;53.576;9.978;2023-09-07T00:30:04;8.60;;;7.57;;
7160;SDS011;3622;53.576;9.978;2023-09-07T00:32:32;8.93;;;7.10;;
7160;SDS011;3622;53.576;9.978;2023-09-07T00:34:59;7.63;;;6.90;;
7160;SDS011;3622;53.576;9.978;2023-09-07T00:37:25;7.97;;;7.20;;
7160;SDS011;3622;53.576;9.978;2023-09-07T00:39:51;9.33;;;7.83;;
7160;SDS011;3622;53.576;9.978;2023-09-07T00:42:17;8.03;;;7.43;;
7160;SDS011;3622;53.576;9.978;2023-09-07T00:44:43;7.90;;;7.10;;
7160;SDS011;3622;53.576;9.978;2023-09-07T00:47:09;9.20;;;7.63;;
7160;SDS011;3622;53.576;9.978;2023-09-07T00:49:36;9.80;;;7.47;;
7160;SDS011;3622;53.576;9.978;2023-09-07T00:52:02;8.53;;;7.67;;
7160;SDS011;3622;53.576;9.978;2023-09-07T00:54:28;9.87;;;7.23;;
7160;SDS011;3622;53.576;9.978;2023-09-07T00:56:55;7.30;;;6.70;;
7160;SDS011;3622;53.576;9.978;2023-09-07T00:59:21;7.23;;;6.70;;
7160;SDS011;3622;53.576;9.978;2023-09-07T01:01:47;7.90;;;7.20;;
7160;SDS011;3622;53.576;9.978;2023-09-07T01:04:14;7.97;;;7.20;;
7160;SDS011;3622;53.576;9.978;2023-09-07T01:06:41;10.30;;;7.10;;
7160;SDS011;3622;53.576;9.978;2023-09-07T01:09:16;13.57;;;7.00;;
7160;SDS011;3622;53.576;9.978;2023-09-07T01:11:44;7.33;;;6.80;;
7160;SDS011;3622;53.576;9.978;2023-09-07T01:14:10;9.40;;;7.30;;
7160;SDS011;3622;53.576;9.978;2023-09-07T01:16:36;8.30;;;7.00;;
7160;SDS011;3622;53.576;9.978;2023-09-07T01:19:03;8.07;;;7.37;;
7160;SDS011;3622;53.576;9.978;2023-09-07T01:21:34;8.20;;;7.40;;
7160;SDS011;3622;53.576;9.978;2023-09-07T01:24:01;8.33;;;7.57;;
7160;SDS011;3622;53.576;9.978;2023-09-07T01:26:27;13.83;;;7.23;;
7160;SDS011;3622;53.576;9.978;2023-09-07T01:28:53;7.27;;;6.67;;
7160;SDS011;3622;53.576;9.978;2023-09-07T01:31:19;7.93;;;7.30;;
7160;SDS011;3622;53.576;9.978;2023-09-07T01:33:45;7.43;;;6.93;;
7160;SDS011;3622;53.576;9.978;2023-09-07T01:36:11;8.17;;;7.10;;
7160;SDS011;3622;53.576;9.978;2023-09-07T01:38:37;13.30;;;7.20;;
7160;SDS011;3622;53.576;9.978;2023-09-07T01:41:03;7.30;;;6.60;;
7160;SDS011;3622;53.576;9.978;2023-09-07T01:43:29;7.50;;;7.00;;
7160;SDS011;3622;53.576;9.978;2023-09-07T01:45:54;8.70;;;7.00;;
7160;SDS011;3622;53.576;9.978;2023-09-07T01:48:20;8.10;;;7.20;;
7160;SDS011;3622;53.576;9.978;2023-09-07T01:50:46;7.37;;;6.77;;
7160;SDS011;3622;53.576;9.978;2023-09-07T01:53:12;8.13;;;7.43;;
7160;SDS011;3622;53.576;9.978;2023-09-07T01:55:38;9.70;;;8.00;;
7160;SDS011;3622;53.576;9.978;2023-09-07T01:58:04;8.77;;;7.87;;
7160;SDS011;3622;53.576;9.978;2023-09-07T02:00:30;8.50;;;7.63;;
7160;SDS011;3622;53.576;9.978;2023-09-07T02:02:58;7.90;;;7.27;;
7160;SDS011;3622;53.576;9.978;2023-09-07T02:05:24;7.57;;;7.07;;
7160;SDS011;3622;53.576;9.978;2023-09-07T02:07:50;7.90;;;7.30;;
7160;SDS011;3622;53.576;9.978;2023-09-07T02:10:16;8.00;;;7.23;;
7160;SDS011;3622;53.576;9.978;2023-09-07T02:12:42;8.40;;;7.70;;
7160;SDS011;3622;53.576;9.978;2023-09-07T02:15:08;7.73;;;7.13;;
7160;SDS011;3622;53.576;9.978;2023-09-07T02:17:34;8.17;;;7.43;;
7160;SDS011;3622;53.576;9.978;2023-09-07T02:20:00;8.40;;;7.70;;
7160;SDS011;3622;53.576;9.978;2023-09-07T02:22:29;8.30;;;7.60;;
7160;SDS011;3622;53.576;9.978;2023-09-07T02:24:55;8.03;;;7.50;;
7160;SDS011;3622;53.576;9.978;2023-09-07T02:27:21;8.83;;;8.03;;
7160;SDS011;3622;53.576;9.978;2023-09-07T02:29:47;11.83;;;7.73;;
7160;SDS011;3622;53.576;9.978;2023-09-07T02:32:13;7.77;;;7.17;;
7160;SDS011;3622;53.576;9.978;2023-09-07T02:34:38;9.53;;;7.93;;
7160;SDS011;3622;53.576;9.978;2023-09-07T02:37:04;7.93;;;7.20;;
7160;SDS011;3622;53.576;9.978;2023-09-07T02:39:30;7.90;;;7.30;;
7160;SDS011;3622;53.576;9.978;2023-09-07T02:41:56;8.43;;;7.70;;
7160;SDS011;3622;53.576;9.978;2023-09-07T02:44:22;8.03;;;7.33;;
7160;SDS011;3622;53.576;9.978;2023-09-07T02:46:48;9.13;;;8.00;;
7160;SDS011;3622;53.576;9.978;2023-09-07T02:49:14;8.87;;;8.07;;
7160;SDS011;3622;53.576;9.978;2023-09-07T02:51:40;10.93;;;7.83;;
7160;SDS011;3622;53.576;9.978;2023-09-07T02:54:06;8.47;;;7.70;;
7160;SDS011;3622;53.576;9.978;2023-09-07T02:56:32;8.73;;;8.03;;
7160;SDS011;3622;53.576;9.978;2023-09-07T02:58:58;10.03;;;7.80;;
7160;SDS011;3622;53.576;9.978;2023-09-07T03:01:24;11.37;;;7.90;;
7160;SDS011;3622;53.576;9.978;2023-09-07T03:03:50;8.10;;;7.50;;
7160;SDS011;3622;53.576;9.978;2023-09-07T03:06:16;8.67;;;7.87;;
7160;SDS011;3622;53.576;9.978;2023-09-07T03:08:42;10.60;;;8.50;;
7160;SDS011;3622;53.576;9.978;2023-09-07T03:11:09;9.47;;;8.67;;
7160;SDS011;3622;53.576;9.978;2023-09-07T03:13:35;9.53;;;8.57;;
7160;SDS011;3622;53.576;9.978;2023-09-07T03:16:02;9.33;;;8.60;;
7160;SDS011;3622;53.576;9.978;2023-09-07T03:18:28;9.70;;;8.90;;
7160;SDS011;3622;53.576;9.978;2023-09-07T03:20:54;10.73;;;8.67;;
7160;SDS011;3622;53.576;9.978;2023-09-07T03:23:21;9.10;;;8.30;;
7160;SDS011;3622;53.576;9.978;2023-09-07T03:25:47;8.83;;;8.03;;
7160;SDS011;3622;53.576;9.978;2023-09-07T03:28:13;9.37;;;8.53;;
7160;SDS011;3622;53.576;9.978;2023-09-07T03:30:39;9.60;;;8.70;;
7160;SDS011;3622;53.576;9.978;2023-09-07T03:33:05;9.60;;;8.80;;
7160;SDS011;3622;53.576;9.978;2023-09-07T03:35:31;9.40;;;8.60;;
7160;SDS011;3622;53.576;9.978;2023-09-07T03:37:58;12.33;;;9.20;;
7160;SDS011;3622;53.576;9.978;2023-09-07T03:40:24;13.10;;;8.90;;
7160;SDS011;3622;53.576;9.978;2023-09-07T03:42:50;9.40;;;8.60;;
7160;SDS011;3622;53.576;9.978;2023-09-07T03:45:16;9.70;;;8.83;;
7160;SDS011;3622;53.576;9.978;2023-09-07T03:47:42;11.43;;;10.33;;
7160;SDS011;3622;53.576;9.978;2023-09-07T03:50:09;29.80;;;23.60;;
7160;SDS011;3622;53.576;9.978;2023-09-07T03:52:35;21.27;;;16.90;;
7160;SDS011;3622;53.576;9.978;2023-09-07T03:55:01;23.07;;;18.13;;
7160;SDS011;3622;53.576;9.978;2023-09-07T03:57:28;13.90;;;12.50;;
7160;SDS011;3622;53.576;9.978;2023-09-07T03:59:54;35.43;;;28.50;;
7160;SDS011;3622;53.576;9.978;2023-09-07T04:02:21;13.60;;;12.00;;
7160;SDS011;3622;53.576;9.978;2023-09-07T04:04:51;15.23;;;13.70;;
7160;SDS011;3622;53.576;9.978;2023-09-07T04:07:17;15.23;;;13.63;;
7160;SDS011;3622;53.576;9.978;2023-09-07T04:09:43;14.50;;;13.00;;
7160;SDS011;3622;53.576;9.978;2023-09-07T04:12:10;13.97;;;11.53;;
7160;SDS011;3622;53.576;9.978;2023-09-07T04:14:36;10.30;;;8.60;;
7160;SDS011;3622;53.576;9.978;2023-09-07T04:17:02;10.27;;;9.23;;
7160;SDS011;3622;53.576;9.978;2023-09-07T04:19:28;12.87;;;9.97;;
7160;SDS011;3622;53.576;9.978;2023-09-07T04:21:54;10.67;;;9.50;;
7160;SDS011;3622;53.576;9.978;2023-09-07T04:24:20;13.17;;;10.00;;
7160;SDS011;3622;53.576;9.978;2023-09-07T04:26:47;9.47;;;8.60;;
7160;SDS011;3622;53.576;9.978;2023-09-07T04:29:14;11.90;;;9.83;;
7160;SDS011;3622;53.576;9.978;2023-09-07T04:31:40;11.60;;;10.60;;
7160;SDS011;3622;53.576;9.978;2023-09-07T04:34:07;11.90;;;10.70;;
7160;SDS011;3622;53.576;9.978;2023-09-07T04:36:33;15.30;;;10.63;;
7160;SDS011;3622;53.576;9.978;2023-09-07T04:38:59;10.87;;;9.77;;
7160;SDS011;3622;53.576;9.978;2023-09-07T04:41:25;17.30;;;10.70;;
7160;SDS011;3622;53.576;9.978;2023-09-07T04:43:51;11.13;;;10.03;;
7160;SDS011;3622;53.576;9.978;2023-09-07T04:46:17;19.13;;;14.57;;
7160;SDS011;3622;53.576;9.978;2023-09-07T04:48:43;15.13;;;11.60;;
7160;SDS011;3622;53.576;9.978;2023-09-07T04:51:10;13.00;;;10.20;;
7160;SDS011;3622;53.576;9.978;2023-09-07T04:53:37;11.47;;;10.37;;
7160;SDS011;3622;53.576;9.978;2023-09-07T04:56:04;13.87;;;10.37;;
7160;SDS011;3622;53.576;9.978;2023-09-07T04:58:30;12.43;;;10.27;;
7160;SDS011;3622;53.576;9.978;2023-09-07T05:01:03;11.80;;;10.10;;
7160;SDS011;3622;53.576;9.978;2023-09-07T05:03:29;12.73;;;11.40;;
7160;SDS011;3622;53.576;9.978;2023-09-07T05:05:55;11.50;;;10.40;;
7160;SDS011;3622;53.576;9.978;2023-09-07T05:08:21;12.13;;;9.63;;
7160;SDS011;3622;53.576;9.978;2023-09-07T05:10:49;10.70;;;9.70;;
7160;SDS011;3622;53.576;9.978;2023-09-07T05:13:15;11.17;;;10.00;;
7160;SDS011;3622;53.576;9.978;2023-09-07T05:15:51;10.20;;;9.20;;
7160;SDS011;3622;53.576;9.978;2023-09-07T05:18:17;7.77;;;7.17;;
7160;SDS011;3622;53.576;9.978;2023-09-07T05:20:43;8.33;;;7.63;;
7160;SDS011;3622;53.576;9.978;2023-09-07T05:23:17;9.30;;;8.23;;
7160;SDS011;3622;53.576;9.978;2023-09-07T05:25:48;9.90;;;7.00;;
7160;SDS011;3622;53.576;9.978;2023-09-07T05:28:15;9.07;;;7.43;;
7160;SDS011;3622;53.576;9.978;2023-09-07T05:30:42;9.03;;;7.63;;
7160;SDS011;3622;53.576;9.978;2023-09-07T05:33:11;7.27;;;6.70;;
7160;SDS011;3622;53.576;9.978;2023-09-07T05:35:38;7.93;;;7.00;;
7160;SDS011;3622;53.576;9.978;2023-09-07T05:38:04;8.47;;;7.43;;
7160;SDS011;3622;53.576;9.978;2023-09-07T05:40:36;7.83;;;7.10;;
7160;SDS011;3622;53.576;9.978;2023-09-07T05:43:03;7.80;;;6.63;;
7160;SDS011;3622;53.576;9.978;2023-09-07T05:45:29;6.93;;;6.40;;
7160;SDS011;3622;53.576;9.978;2023-09-07T05:47:56;8.70;;;6.60;;
7160;SDS011;3622;53.576;9.978;2023-09-07T05:50:22;7.00;;;6.50;;
7160;SDS011;3622;53.576;9.978;2023-09-07T05:52:48;7.37;;;6.77;;
7160;SDS011;3622;53.576;9.978;2023-09-07T05:55:14;7.47;;;6.77;;
7160;SDS011;3622;53.576;9.978;2023-09-07T05:57:40;6.87;;;6.37;;
7160;SDS011;3622;53.576;9.978;2023-09-07T06:00:06;10.47;;;6.50;;
7160;SDS011;3622;53.576;9.978;2023-09-07T06:02:32;6.97;;;6.40;;
7160;SDS011;3622;53.576;9.978;2023-09-07T06:04:58;7.50;;;6.80;;
7160;SDS011;3622;53.576;9.978;2023-09-07T06:07:25;7.17;;;6.67;;
7160;SDS011;3622;53.576;9.978;2023-09-07T06:09:51;6.50;;;6.03;;
7160;SDS011;3622;53.576;9.978;2023-09-07T06:12:17;10.80;;;6.23;;
7160;SDS011;3622;53.576;9.978;2023-09-07T06:14:44;11.00;;;6.77;;
7160;SDS011;3622;53.576;9.978;2023-09-07T06:17:11;6.77;;;6.30;;
7160;SDS011;3622;53.576;9.978;2023-09-07T06:19:37;9.03;;;7.77;;
7160;SDS011;3622;53.576;9.978;2023-09-07T06:22:03;11.37;;;6.53;;
7160;SDS011;3622;53.576;9.978;2023-09-07T06:24:29;8.83;;;6.33;;
7160;SDS011;3622;53.576;9.978;2023-09-07T06:26:55;7.33;;;6.57;;
7160;SDS011;3622;53.576;9.978;2023-09-07T06:29:21;9.87;;;6.50;;
7160;SDS011;3622;53.576;9.978;2023-09-07T06:31:47;9.10;;;6.63;;
7160;SDS011;3622;53.576;9.978;2023-09-07T06:34:15;11.07;;;7.57;;
7160;SDS011;3622;53.576;9.978;2023-09-07T06:36:41;9.43;;;6.37;;
7160;SDS011;3622;53.576;9.978;2023-09-07T06:39:07;7.20;;;6.50;;
7160;SDS011;3622;53.576;9.978;2023-09-07T06:41:32;13.87;;;8.00;;
7160;SDS011;3622;53.576;9.978;2023-09-07T06:43:58;11.23;;;6.60;;
7160;SDS011;3622;53.576;9.978;2023-09-07T06:46:24;11.73;;;6.40;;
7160;SDS011;3622;53.576;9.978;2023-09-07T06:48:50;16.87;;;7.50;;
7160;SDS011;3622;53.576;9.978;2023-09-07T06:51:16;14.27;;;6.67;;
7160;SDS011;3622;53.576;9.978;2023-09-07T06:53:42;7.77;;;6.23;;
7160;SDS011;3622;53.576;9.978;2023-09-07T06:56:08;12.10;;;9.97;;
7160;SDS011;3622;53.576;9.978;2023-09-07T06:58:35;6.73;;;6.13;;
7160;SDS011;3622;53.576;9.978;2023-09-07T07:01:01;9.97;;;6.37;;
7160;SDS011;3622;53.576;9.978;2023-09-07T07:03:29;9.23;;;6.70;;
7160;SDS011;3622;53.576;9.978;2023-09-07T07:05:56;9.30;;;6.27;;
7160;SDS011;3622;53.576;9.978;2023-09-07T07:08:22;7.37;;;6.50;;
7160;SDS011;3622;53.576;9.978;2023-09-07T07:10:48;7.43;;;6.70;;
7160;SDS011;3622;53.576;9.978;2023-09-07T07:16:18;6.67;;;6.07;;
7160;SDS011;3622;53.576;9.978;2023-09-07T07:18:44;12.03;;;6.97;;
7160;SDS011;3622;53.576;9.978;2023-09-07T07:21:10;8.67;;;6.50;;
7160;SDS011;3622;53.576;9.978;2023-09-07T07:23:36;11.67;;;6.90;;
7160;SDS011;3622;53.576;9.978;2023-09-07T07:26:01;10.40;;;6.60;;
7160;SDS011;3622;53.576;9.978;2023-09-07T07:28:27;7.90;;;6.47;;
7160;SDS011;3622;53.576;9.978;2023-09-07T07:30:53;7.73;;;6.60;;
7160;SDS011;3622;53.576;9.978;2023-09-07T07:33:19;7.23;;;6.40;;
7160;SDS011;3622;53.576;9.978;2023-09-07T07:35:45;16.53;;;9.27;;
7160;SDS011;3622;53.576;9.978;2023-09-07T07:38:12;16.63;;;9.73;;
7160;SDS011;3622;53.576;9.978;2023-09-07T07:40:39;18.37;;;10.07;;
7160;SDS011;3622;53.576;9.978;2023-09-07T07:43:05;13.43;;;9.40;;
7160;SDS011;3622;53.576;9.978;2023-09-07T07:45:31;22.73;;;10.03;;
7160;SDS011;3622;53.576;9.978;2023-09-07T07:48:01;16.53;;;9.30;;
7160;SDS011;3622;53.576;9.978;2023-09-07T07:50:30;17.93;;;9.67;;
7160;SDS011;3622;53.576;9.978;2023-09-07T07:52:56;34.10;;;10.37;;
7160;SDS011;3622;53.576;9.978;2023-09-07T07:55:22;20.80;;;11.00;;
7160;SDS011;3622;53.576;9.978;2023-09-07T07:57:48;16.27;;;10.17;;
7160;SDS011;3622;53.576;9.978;2023-09-07T08:00:14;26.73;;;11.03;;
7160;SDS011;3622;53.576;9.978;2023-09-07T08:02:40;28.37;;;11.43;;
7160;SDS011;3622;53.576;9.978;2023-09-07T08:05:06;25.95;;;10.85;;
7160;SDS011;3622;53.576;9.978;2023-09-07T08:07:32;21.25;;;9.95;;
7160;SDS011;3622;53.576;9.978;2023-09-07T08:09:58;9.93;;;8.50;;
7160;SDS011;3622;53.576;9.978;2023-09-07T08:12:24;14.33;;;9.27;;
7160;SDS011;3622;53.576;9.978;2023-09-07T08:14:50;18.07;;;11.77;;
7160;SDS011;3622;53.576;9.978;2023-09-07T08:17:19;19.25;;;10.82;;
7160;SDS011;3622;53.576;9.978;2023-09-07T08:19:45;13.15;;;8.65;;
7160;SDS011;3622;53.576;9.978;2023-09-07T08:22:13;15.43;;;8.68;;
7160;SDS011;3622;53.576;9.978;2023-09-07T08:24:41;18.10;;;9.43;;
7160;SDS011;3622;53.576;9.978;2023-09-07T08:27:09;23.27;;;10.30;;
7160;SDS011;3622;53.576;9.978;2023-09-07T08:29:43;22.67;;;13.40;;
7160;SDS011;3622;53.576;9.978;2023-09-07T08:32:12;14.23;;;8.93;;
7160;SDS011;3622;53.576;9.978;2023-09-07T08:34:39;15.43;;;8.07;;
7160;SDS011;3622;53.576;9.978;2023-09-07T08:37:06;11.33;;;7.47;;
7160;SDS011;3622;53.576;9.978;2023-09-07T08:39:35;11.23;;;9.07;;
7160;SDS011;3622;53.576;9.978;2023-09-07T08:42:04;8.13;;;7.53;;
7160;SDS011;3622;53.576;9.978;2023-09-07T08:44:30;16.30;;;11.30;;
7160;SDS011;3622;53.576;9.978;2023-09-07T08:46:58;24.17;;;8.23;;
7160;SDS011;3622;53.576;9.978;2023-09-07T08:49:25;9.73;;;7.87;;
7160;SDS011;3622;53.576;9.978;2023-09-07T08:51:51;22.17;;;8.90;;
7160;SDS011;3622;53.576;9.978;2023-09-07T08:54:17;12.20;;;8.60;;
7160;SDS011;3622;53.576;9.978;2023-09-07T08:56:44;9.68;;;8.15;;
7160;SDS011;3622;53.576;9.978;2023-09-07T08:59:10;18.83;;;8.73;;
7160;SDS011;3622;53.576;9.978;2023-09-07T09:01:36;15.40;;;13.10;;
7160;SDS011;3622;53.576;9.978;2023-09-07T09:04:02;15.88;;;9.32;;
7160;SDS011;3622;53.576;9.978;2023-09-07T09:06:28;11.32;;;8.40;;
7160;SDS011;3622;53.576;9.978;2023-09-07T09:08:55;6.80;;;6.30;;
7160;SDS011;3622;53.576;9.978;2023-09-07T09:11:22;14.40;;;6.83;;
7160;SDS011;3622;53.576;9.978;2023-09-07T09:13:48;11.17;;;6.40;;
7160;SDS011;3622;53.576;9.978;2023-09-07T09:16:15;14.90;;;8.10;;
7160;SDS011;3622;53.576;9.978;2023-09-07T09:18:52;13.20;;;6.20;;
7160;SDS011;3622;53.576;9.978;2023-09-07T09:21:18;7.00;;;5.80;;
7160;SDS011;3622;53.576;9.978;2023-09-07T09:23:48;7.80;;;6.20;;
7160;SDS011;3622;53.576;9.978;2023-09-07T09:26:15;8.37;;;6.27;;
7160;SDS011;3622;53.576;9.978;2023-09-07T09:28:41;6.80;;;6.10;;
7160;SDS011;3622;53.576;9.978;2023-09-07T09:31:09;8.93;;;6.67;;
7160;SDS011;3622;53.576;9.978;2023-09-07T09:33:37;6.30;;;5.80;;
7160;SDS011;3622;53.576;9.978;2023-09-07T09:36:03;6.70;;;6.10;;
7160;SDS011;3622;53.576;9.978;2023-09-07T09:38:30;6.63;;;6.03;;
7160;SDS011;3622;53.576;9.978;2023-09-07T09:40:57;9.17;;;6.10;;
7160;SDS011;3622;53.576;9.978;2023-09-07T09:43:24;20.37;;;6.37;;
7160;SDS011;3622;53.576;9.978;2023-09-07T09:45:50;6.93;;;6.43;;
7160;SDS011;3622;53.576;9.978;2023-09-07T09:48:18;11.60;;;6.87;;
7160;SDS011;3622;53.576;9.978;2023-09-07T09:50:45;6.50;;;5.70;;
7160;SDS011;3622;53.576;9.978;2023-09-07T09:53:13;5.60;;;5.20;;
7160;SDS011;3622;53.576;9.978;2023-09-07T09:55:43;6.20;;;5.50;;
7160;SDS011;3622;53.576;9.978;2023-09-07T09:58:09;6.53;;;5.47;;
7160;SDS011;3622;53.576;9.978;2023-09-07T10:00:35;8.90;;;6.67;;
7160;SDS011;3622;53.576;9.978;2023-09-07T10:03:10;7.53;;;5.80;;
7160;SDS011;3622;53.576;9.978;2023-09-07T10:05:37;8.90;;;5.67;;
7160;SDS011;3622;53.576;9.978;2023-09-07T10:08:13;6.23;;;5.40;;
7160;SDS011;3622;53.576;9.978;2023-09-07T10:10:41;6.20;;;5.73;;
7160;SDS011;3622;53.576;9.978;2023-09-07T10:13:07;6.17;;;5.70;;
7160;SDS011;3622;53.576;9.978;2023-09-07T10:15:33;7.37;;;5.30;;
7160;SDS011;3622;53.576;9.978;2023-09-07T10:26:04;7.50;;;5.30;;
7160;SDS011;3622;53.576;9.978;2023-09-07T10:28:30;5.30;;;4.97;;
7160;SDS011;3622;53.576;9.978;2023-09-07T10:33:33;5.50;;;5.10;;
7160;SDS011;3622;53.576;9.978;2023-09-07T10:35:59;5.93;;;5.43;;
7160;SDS011;3622;53.576;9.978;2023-09-07T10:38:26;6.10;;;5.70;;
7160;SDS011;3622;53.576;9.978;2023-09-07T10:40:55;5.83;;;5.43;;
7160;SDS011;3622;53.576;9.978;2023-09-07T10:43:23;6.50;;;5.97;;
7160;SDS011;3622;53.576;9.978;2023-09-07T10:45:49;5.90;;;5.50;;
7160;SDS011;3622;53.576;9.978;2023-09-07T10:48:15;5.97;;;5.30;;
7160;SDS011;3622;53.576;9.978;2023-09-07T10:50:45;6.97;;;6.13;;
7160;SDS011;3622;53.576;9.978;2023-09-07T10:53:12;5.10;;;4.60;;
7160;SDS011;3622;53.576;9.978;2023-09-07T10:55:39;6.20;;;5.70;;
7160;SDS011;3622;53.576;9.978;2023-09-07T10:58:05;6.67;;;4.90;;
7160;SDS011;3622;53.576;9.978;2023-09-07T11:00:31;8.50;;;5.87;;
7160;SDS011;3622;53.576;9.978;2023-09-07T11:02:58;6.27;;;4.60;;
7160;SDS011;3622;53.576;9.978;2023-09-07T11:05:24;5.50;;;5.10;;
7160;SDS011;3622;53.576;9.978;2023-09-07T11:07:51;5.27;;;4.97;;
7160;SDS011;3622;53.576;9.978;2023-09-07T11:10:17;5.20;;;4.90;;
7160;SDS011;3622;53.576;9.978;2023-09-07T11:12:43;4.93;;;4.50;;
7160;SDS011;3622;53.576;9.978;2023-09-07T11:15:10;5.60;;;5.03;;
7160;SDS011;3622;53.576;9.978;2023-09-07T11:17:36;5.53;;;5.03;;
7160;SDS011;3622;53.576;9.978;2023-09-07T11:20:05;5.67;;;5.13;;
7160;SDS011;3622;53.576;9.978;2023-09-07T11:22:32;4.83;;;4.43;;
7160;SDS011;3622;53.576;9.978;2023-09-07T11:24:59;7.97;;;6.33;;
7160;SDS011;3622;53.576;9.978;2023-09-07T11:27:28;13.13;;;6.23;;
7160;SDS011;3622;53.576;9.978;2023-09-07T11:29:55;7.80;;;5.20;;
7160;SDS011;3622;53.576;9.978;2023-09-07T11:32:22;6.30;;;5.70;;
7160;SDS011;3622;53.576;9.978;2023-09-07T11:34:49;5.97;;;5.47;;
7160;SDS011;3622;53.576;9.978;2023-09-07T11:37:15;5.33;;;4.97;;
7160;SDS011;3622;53.576;9.978;2023-09-07T11:39:42;5.40;;;5.00;;
7160;SDS011;3622;53.576;9.978;2023-09-07T11:42:08;6.93;;;5.63;;
7160;SDS011;3622;53.576;9.978;2023-09-07T11:44:34;5.70;;;5.17;;
7160;SDS011;3622;53.576;9.978;2023-09-07T11:47:00;6.13;;;5.43;;
7160;SDS011;3622;53.576;9.978;2023-09-07T11:49:26;5.63;;;5.13;;
7160;SDS011;3622;53.576;9.978;2023-09-07T11:51:52;6.43;;;5.90;;
7160;SDS011;3622;53.576;9.978;2023-09-07T11:54:18;6.53;;;5.97;;
7160;SDS011;3622;53.576;9.978;2023-09-07T11:56:44;5.80;;;5.07;;
7160;SDS011;3622;53.576;9.978;2023-09-07T11:59:11;7.50;;;6.80;;
7160;SDS011;3622;53.576;9.978;2023-09-07T12:01:37;7.07;;;5.30;;
7160;SDS011;3622;53.576;9.978;2023-09-07T12:04:04;5.47;;;5.07;;
7160;SDS011;3622;53.576;9.978;2023-09-07T12:06:30;5.73;;;5.33;;
7160;SDS011;3622;53.576;9.978;2023-09-07T12:09:00;5.13;;;4.83;;
7160;SDS011;3622;53.576;9.978;2023-09-07T12:11:26;5.90;;;5.50;;
7160;SDS011;3622;53.576;9.978;2023-09-07T12:13:52;6.23;;;5.57;;
7160;SDS011;3622;53.576;9.978;2023-09-07T12:16:18;4.90;;;4.60;;
7160;SDS011;3622;53.576;9.978;2023-09-07T12:18:44;7.93;;;5.10;;
7160;SDS011;3622;53.576;9.978;2023-09-07T12:21:10;5.50;;;5.20;;
7160;SDS011;3622;53.576;9.978;2023-09-07T12:23:36;6.93;;;6.43;;
7160;SDS011;3622;53.576;9.978;2023-09-07T12:26:02;6.27;;;5.77;;
7160;SDS011;3622;53.576;9.978;2023-09-07T12:28:29;9.90;;;5.40;;
7160;SDS011;3622;53.576;9.978;2023-09-07T12:30:56;5.87;;;5.23;;
7160;SDS011;3622;53.576;9.978;2023-09-07T12:33:23;11.37;;;5.70;;
7160;SDS011;3622;53.576;9.978;2023-09-07T12:35:49;5.73;;;5.33;;
7160;SDS011;3622;53.576;9.978;2023-09-07T12:38:15;6.60;;;6.00;;
7160;SDS011;3622;53.576;9.978;2023-09-07T12:40:43;5.20;;;4.80;;
7160;SDS011;3622;53.576;9.978;2023-09-07T12:43:09;4.90;;;4.50;;
7160;SDS011;3622;53.576;9.978;2023-09-07T12:45:35;4.83;;;4.43;;
7160;SDS011;3622;53.576;9.978;2023-09-07T12:48:01;4.93;;;4.57;;
7160;SDS011;3622;53.576;9.978;2023-09-07T12:50:27;5.60;;;5.07;;
7160;SDS011;3622;53.576;9.978;2023-09-07T12:52:54;5.10;;;4.60;;
7160;SDS011;3622;53.576;9.978;2023-09-07T12:55:20;4.80;;;4.40;;
7160;SDS011;3622;53.576;9.978;2023-09-07T12:57:46;4.43;;;4.13;;
7160;SDS011;3622;53.576;9.978;2023-09-07T13:00:12;5.10;;;4.80;;
7160;SDS011;3622;53.576;9.978;2023-09-07T13:02:38;4.80;;;4.40;;
7160;SDS011;3622;53.576;9.978;2023-09-07T13:05:04;10.00;;;4.33;;
7160;SDS011;3622;53.576;9.978;2023-09-07T13:07:31;5.93;;;5.53;;
7160;SDS011;3622;53.576;9.978;2023-09-07T13:09:57;5.03;;;4.73;;
7160;SDS011;3622;53.576;9.978;2023-09-07T13:12:23;4.90;;;4.50;;
7160;SDS011;3622;53.576;9.978;2023-09-07T13:14:49;5.03;;;4.77;;
7160;SDS011;3622;53.576;9.978;2023-09-07T13:17:15;5.20;;;4.70;;
7160;SDS011;3622;53.576;9.978;2023-09-07T13:19:41;4.57;;;4.17;;
7160;SDS011;3622;53.576;9.978;2023-09-07T13:22:08;4.70;;;4.40;;
7160;SDS011;3622;53.576;9.978;2023-09-07T13:24:34;5.37;;;4.93;;
7160;SDS011;3622;53.576;9.978;2023-09-07T13:27:00;5.37;;;4.97;;
7160;SDS011;3622;53.576;9.978;2023-09-07T13:29:28;5.23;;;4.80;;
7160;SDS011;3622;53.576;9.978;2023-09-07T13:31:54;7.07;;;4.60;;
7160;SDS011;3622;53.576;9.978;2023-09-07T13:34:21;8.47;;;5.70;;
7160;SDS011;3622;53.576;9.978;2023-09-07T13:36:47;4.87;;;4.07;;
7160;SDS011;3622;53.576;9.978;2023-09-07T13:39:13;6.40;;;4.43;;
7160;SDS011;3622;53.576;9.978;2023-09-07T13:41:39;8.40;;;5.10;;
7160;SDS011;3622;53.576;9.978;2023-09-07T13:44:05;8.30;;;5.50;;
7160;SDS011;3622;53.576;9.978;2023-09-07T13:46:32;5.23;;;4.87;;
7160;SDS011;3622;53.576;9.978;2023-09-07T13:48:58;6.80;;;5.30;;
7160;SDS011;3622;53.576;9.978;2023-09-07T13:51:24;13.77;;;5.53;;
7160;SDS011;3622;53.576;9.978;2023-09-07T13:53:50;7.63;;;5.27;;
7160;SDS011;3622;53.576;9.978;2023-09-07T13:56:17;4.83;;;4.53;;
7160;SDS011;3622;53.576;9.978;2023-09-07T13:58:43;4.73;;;4.40;;
7160;SDS011;3622;53.576;9.978;2023-09-07T14:01:09;8.70;;;7.37;;
7160;SDS011;3622;53.576;9.978;2023-09-07T14:03:35;8.87;;;4.70;;
7160;SDS011;3622;53.576;9.978;2023-09-07T14:06:01;5.67;;;5.10;;
7160;SDS011;3622;53.576;9.978;2023-09-07T14:08:27;4.67;;;4.37;;
7160;SDS011;3622;53.576;9.978;2023-09-07T14:10:55;8.27;;;4.77;;
7160;SDS011;3622;53.576;9.978;2023-09-07T14:13:21;5.07;;;4.60;;
7160;SDS011;3622;53.576;9.978;2023-09-07T14:15:47;4.77;;;4.47;;
7160;SDS011;3622;53.576;9.978;2023-09-07T14:18:13;6.00;;;5.50;;
7160;SDS011;3622;53.576;9.978;2023-09-07T14:20:39;4.93;;;4.57;;
7160;SDS011;3622;53.576;9.978;2023-09-07T14:23:05;6.50;;;4.83;;
7160;SDS011;3622;53.576;9.978;2023-09-07T14:25:31;4.83;;;4.43;;
7160;SDS011;3622;53.576;9.978;2023-09-07T14:27:57;5.80;;;4.27;;
7160;SDS011;3622;53.576;9.978;2023-09-07T14:30:23;4.60;;;4.20;;
7160;SDS011;3622;53.576;9.978;2023-09-07T14:32:49;4.60;;;4.20;;
7160;SDS011;3622;53.576;9.978;2023-09-07T14:35:15;5.13;;;4.10;;
7160;SDS011;3622;53.576;9.978;2023-09-07T14:37:41;4.97;;;4.50;;
7160;SDS011;3622;53.576;9.978;2023-09-07T14:40:07;5.37;;;4.70;;
7160;SDS011;3622;53.576;9.978;2023-09-07T14:42:33;5.00;;;4.50;;
7160;SDS011;3622;53.576;9.978;2023-09-07T14:44:59;4.97;;;4.57;;
7160;SDS011;3622;53.576;9.978;2023-09-07T14:47:28;5.50;;;4.33;;
7160;SDS011;3622;53.576;9.978;2023-09-07T14:49:54;5.53;;;4.33;;
7160;SDS011;3622;53.576;9.978;2023-09-07T14:52:20;4.40;;;4.10;;
7160;SDS011;3622;53.576;9.978;2023-09-07T14:54:49;4.53;;;4.23;;
7160;SDS011;3622;53.576;9.978;2023-09-07T14:57:15;7.40;;;6.80;;
7160;SDS011;3622;53.576;9.978;2023-09-07T14:59:41;5.87;;;5.37;;
7160;SDS011;3622;53.576;9.978;2023-09-07T15:02:07;4.70;;;4.40;;
7160;SDS011;3622;53.576;9.978;2023-09-07T15:04:33;5.53;;;5.17;;
7160;SDS011;3622;53.576;9.978;2023-09-07T15:07:00;4.90;;;4.50;;
7160;SDS011;3622;53.576;9.978;2023-09-07T15:09:26;7.73;;;5.90;;
7160;SDS011;3622;53.576;9.978;2023-09-07T15:11:53;7.10;;;6.50;;
7160;SDS011;3622;53.576;9.978;2023-09-07T15:14:19;4.93;;;4.63;;
7160;SDS011;3622;53.576;9.978;2023-09-07T15:16:45;12.67;;;6.20;;
7160;SDS011;3622;53.576;9.978;2023-09-07T15:19:11;6.53;;;5.93;;